Time;durP1;ratioP1;P1;durP2;ratioP2;P2;SDS_P1;SDS_P2;PMS_P1;PMS_P2;Temp;Humidity;BMP_temperature;BMP_pressure;BME280_temperature;BME280_humidity;BME280_pressure;Samples;Min_cycle;Max_cycle;Signal;HPM_P1;HPM_P2
2021/06/08 14:46:52;;;;;;;22.20;20.43;;;34.70;60.40;;;;;;4904091;28;20491;-90
2021/06/08 14:49:26;;;;;;;22.90;21.20;;;32.40;65.80;;;;;;4908278;28;21058;-91
2021/06/08 15:01:11;;;;;;;27.40;22.37;;;33.10;67.50;;;;;;4914154;28;23810;-91
2021/06/08 15:04:08;;;;;;;32.33;28.80;;;32.40;67.80;;;;;;4918478;28;20546;-91
2021/06/08 15:06:35;;;;;;;20.77;19.27;;;31.20;70.80;;;;;;4911937;28;20459;-92
2021/06/08 15:09:15;;;;;;;17.83;16.53;;;33.40;69.10;;;;;;4913195;28;20483;-92
2021/06/08 15:12:01;;;;;;;19.90;18.40;;;35.90;59.60;;;;;;4902145;28;20514;-91
2021/06/08 15:14:43;;;;;;;18.83;17.53;;;36.60;56.10;;;;;;4908781;28;21130;-90
2021/06/08 15:17:12;;;;;;;19.97;18.50;;;35.80;56.10;;;;;;4915540;28;20473;-91
2021/06/08 15:19:44;;;;;;;19.40;18.10;;;32.70;61.20;;;;;;4917409;28;20939;-91
2021/06/08 15:22:19;;;;;;;19.00;17.70;;;31.60;65.40;;;;;;4900722;29;20468;-90
2021/06/08 15:24:49;;;;;;;18.37;16.97;;;31.50;66.90;;;;;;4915508;28;20543;-92
2021/06/08 15:27:21;;;;;;;18.30;16.90;;;33.60;63.40;;;;;;4921318;28;20867;-91
2021/06/08 15:30:05;;;;;;;19.80;18.30;;;34.70;60.50;;;;;;4917915;28;21192;-91
2021/06/08 15:32:36;;;;;;;18.83;17.53;;;32.70;61.60;;;;;;4918991;28;20504;-90
2021/06/08 15:35:10;;;;;;;20.03;18.53;;;29.10;69.80;;;;;;4916762;28;20464;-95
2021/06/08 15:37:37;;;;;;;20.50;19.20;;;28.70;78.70;;;;;;4913670;28;20996;-95
2021/06/08 15:40:25;;;;;;;18.80;17.40;;;29.00;77.50;;;;;;4922305;28;20470;-93
2021/06/08 15:42:53;;;;;;;18.77;17.37;;;29.40;75.30;;;;;;4924564;28;20503;-93
2021/06/08 15:45:19;;;;;;;19.47;17.67;;;29.60;75.30;;;;;;4922831;28;20626;-94
2021/06/08 15:47:55;;;;;;;19.53;18.03;;;31.70;75.40;;;;;;4927913;28;20467;-92
2021/06/08 15:50:27;;;;;;;18.50;17.20;;;33.90;62.00;;;;;;4924478;28;20530;-95
2021/06/08 15:52:58;;;;;;;16.90;15.80;;;33.20;62.60;;;;;;4929726;28;20451;-93
2021/06/08 15:55:31;;;;;;;17.90;16.43;;;33.50;64.30;;;;;;4922743;28;20463;-93
2021/06/08 15:58:18;;;;;;;18.23;16.93;;;32.80;66.30;;;;;;4916631;28;20522;-92
2021/06/08 16:00:54;;;;;;;20.30;18.27;;;32.70;66.70;;;;;;4916589;28;20478;-92
2021/06/08 16:03:44;;;;;;;17.53;16.33;;;32.10;67.30;;;;;;4927258;28;20573;-94
2021/06/08 16:06:40;;;;;;;19.73;18.33;;;31.40;71.50;;;;;;4913201;28;20555;-91
2021/06/08 16:09:09;;;;;;;19.10;17.60;;;30.60;73.00;;;;;;4917045;28;20463;-93
2021/06/08 16:11:35;;;;;;;20.53;19.13;;;28.70;80.50;;;;;;4921409;28;20487;-93
2021/06/08 16:14:02;;;;;;;20.63;18.83;;;25.90;90.60;;;;;;4924522;28;20466;-92
2021/06/08 16:16:37;;;;;;;20.50;19.00;;;23.60;98.30;;;;;;4918997;28;20472;-94
2021/06/08 16:22:31;;;;;;;17.83;16.43;;;21.10;99.90;;;;;;4923120;28;20457;-93
2021/06/08 16:36:06;;;;;;;;;;;;;;;;;;;;;
2021/06/08 18:02:24;;;;;;;17.90;16.30;;;17.30;99.90;;;;;;4911982;28;20459;-93
2021/06/08 19:16:08;;;;;;;16.30;14.87;;;16.70;99.90;;;;;;3692451;26;20490;-87
2021/06/08 19:18:39;;;;;;;16.80;15.20;;;16.70;99.90;;;;;;4902420;28;20479;-85
2021/06/08 19:21:08;;;;;;;17.50;15.77;;;16.70;99.90;;;;;;4900200;28;20971;-85
2021/06/08 19:23:35;;;;;;;17.33;15.67;;;16.70;99.90;;;;;;4908877;28;20462;-85
2021/06/08 19:26:01;;;;;;;18.97;17.07;;;16.60;99.90;;;;;;4906828;28;20487;-84
2021/06/08 19:28:28;;;;;;;17.47;15.87;;;16.60;99.90;;;;;;4909127;28;20665;-85
2021/06/08 19:33:38;;;;;;;17.03;15.53;;;16.50;99.90;;;;;;4908041;28;21437;-85
2021/06/08 19:53:36;;;;;;;19.00;17.17;;;16.50;99.90;;;;;;4904104;28;20530;-84
2021/06/08 19:56:24;;;;;;;18.90;17.10;;;16.70;99.90;;;;;;4920786;28;20576;-84
2021/06/08 19:58:50;;;;;;;19.47;17.67;;;16.80;99.90;;;;;;4895787;28;21522;-83
2021/06/08 20:01:16;;;;;;;21.43;19.43;;;16.90;99.90;;;;;;4903516;28;20479;-84
2021/06/08 20:03:45;;;;;;;20.17;18.27;;;16.80;99.90;;;;;;4905308;28;20208;-84
2021/06/08 20:06:16;;;;;;;20.27;18.50;;;16.80;99.90;;;;;;4910852;28;20234;-84
2021/06/08 20:08:49;;;;;;;18.83;17.20;;;16.70;99.90;;;;;;4916039;28;20795;-84
2021/06/08 20:11:36;;;;;;;18.93;17.23;;;16.70;99.90;;;;;;4919455;28;20548;-84
2021/06/08 20:14:24;;;;;;;20.20;18.20;;;16.60;99.90;;;;;;4925398;28;20482;-84
2021/06/08 20:16:58;;;;;;;19.73;17.93;;;16.50;99.90;;;;;;4916238;28;20530;-85
2021/06/08 20:19:27;;;;;;;20.90;19.00;;;16.50;99.90;;;;;;4914991;28;20467;-84
2021/06/08 20:21:54;;;;;;;22.13;19.90;;;16.40;99.90;;;;;;4915554;28;20476;-83
2021/06/08 20:24:20;;;;;;;21.20;19.07;;;16.40;99.90;;;;;;4923367;29;20207;-83
2021/06/08 20:26:45;;;;;;;22.17;20.07;;;16.40;99.90;;;;;;4918156;29;22288;-83
2021/06/08 20:29:11;;;;;;;21.50;19.37;;;16.50;99.90;;;;;;4913237;28;20572;-83
2021/06/08 20:31:37;;;;;;;22.00;19.70;;;16.50;99.90;;;;;;4917539;28;20204;-83
2021/06/08 20:34:03;;;;;;;21.27;19.17;;;16.60;99.90;;;;;;4924965;28;20215;-83
2021/06/08 20:36:31;;;;;;;21.87;19.73;;;16.60;99.90;;;;;;4911525;28;20202;-83
2021/06/08 20:38:57;;;;;;;22.80;20.70;;;16.60;99.90;;;;;;4900502;29;20214;-83
2021/06/08 20:41:25;;;;;;;22.00;19.80;;;16.60;99.90;;;;;;4914581;29;20460;-83
2021/06/08 20:43:54;;;;;;;23.33;21.03;;;16.60;99.90;;;;;;4919136;28;20507;-83
2021/06/08 20:46:25;;;;;;;23.33;21.23;;;16.50;99.90;;;;;;4913333;29;20471;-83
2021/06/08 20:48:51;;;;;;;22.63;20.63;;;16.50;99.90;;;;;;4918456;28;21003;-82
2021/06/08 20:51:21;;;;;;;23.03;20.83;;;16.50;99.90;;;;;;4904034;29;20467;-83
2021/06/08 20:53:48;;;;;;;23.80;21.40;;;16.40;99.90;;;;;;4918744;29;20196;-84
2021/06/08 20:56:16;;;;;;;24.87;22.37;;;16.50;99.90;;;;;;4911037;28;20475;-83
2021/06/08 20:58:43;;;;;;;24.03;21.83;;;16.60;99.90;;;;;;4908648;29;20458;-84
2021/06/08 21:01:10;;;;;;;21.47;19.57;;;16.50;99.90;;;;;;4908577;29;20473;-83
2021/06/08 21:03:38;;;;;;;23.50;21.40;;;16.50;99.90;;;;;;4910538;28;21028;-83
2021/06/08 21:06:05;;;;;;;25.03;22.73;;;16.50;99.90;;;;;;4909686;29;20461;-83
2021/06/08 21:08:31;;;;;;;24.63;22.23;;;16.50;99.90;;;;;;4915680;28;20459;-84
2021/06/08 21:10:58;;;;;;;25.50;23.07;;;16.50;99.90;;;;;;4920327;29;20451;-84
2021/06/08 21:13:24;;;;;;;23.77;21.47;;;16.50;99.90;;;;;;4914814;28;20558;-83
2021/06/08 21:15:50;;;;;;;27.40;24.50;;;16.40;99.90;;;;;;4918109;28;20490;-83
2021/06/08 21:18:19;;;;;;;25.20;22.90;;;16.50;99.90;;;;;;4912149;29;20459;-83
2021/06/08 21:20:54;;;;;;;26.87;22.97;;;16.50;99.90;;;;;;4919823;28;20580;-83
2021/06/08 21:23:19;;;;;;;23.73;21.60;;;16.60;99.90;;;;;;4913641;29;20682;-83
2021/06/08 21:25:52;;;;;;;24.33;22.10;;;16.60;99.90;;;;;;4918989;28;20456;-83
2021/06/08 21:28:19;;;;;;;25.33;22.77;;;16.60;99.90;;;;;;4901443;29;20470;-83
2021/06/08 21:30:45;;;;;;;25.97;23.47;;;16.50;99.90;;;;;;4911518;29;20477;-83
2021/06/08 21:33:13;;;;;;;23.77;21.57;;;16.50;99.90;;;;;;4917504;29;20491;-83
2021/06/08 21:35:42;;;;;;;25.90;23.20;;;16.40;99.90;;;;;;4922342;28;20525;-83
2021/06/08 21:38:08;;;;;;;26.73;24.20;;;16.50;99.90;;;;;;4918234;28;20702;-83
2021/06/08 21:40:34;;;;;;;27.27;24.67;;;16.60;99.90;;;;;;4916067;28;21086;-83
2021/06/08 21:43:03;;;;;;;28.17;25.30;;;16.60;99.90;;;;;;4914106;29;20208;-83
2021/06/08 21:45:29;;;;;;;28.53;25.77;;;16.60;99.90;;;;;;4914300;28;20467;-83
2021/06/08 21:47:58;;;;;;;29.80;26.90;;;16.50;99.90;;;;;;4928614;29;20462;-83
2021/06/08 21:50:26;;;;;;;27.23;24.60;;;16.50;99.90;;;;;;4916818;29;20470;-83
2021/06/08 21:53:02;;;;;;;25.80;23.30;;;16.40;99.90;;;;;;4894601;29;21154;-83
2021/06/08 21:55:30;;;;;;;24.30;21.93;;;16.50;99.90;;;;;;4915223;29;20486;-83
2021/06/08 21:57:57;;;;;;;25.47;23.10;;;16.40;99.90;;;;;;4916185;28;20887;-83
2021/06/08 22:00:26;;;;;;;25.30;22.70;;;16.30;99.90;;;;;;4913828;28;20549;-83
2021/06/08 22:02:52;;;;;;;25.47;22.87;;;16.20;99.90;;;;;;4914140;29;20460;-83
2021/06/08 22:05:19;;;;;;;25.63;23.10;;;16.10;99.90;;;;;;4914226;29;20523;-83
2021/06/08 22:07:46;;;;;;;25.33;23.03;;;16.10;99.90;;;;;;4920809;28;20458;-83
2021/06/08 22:10:15;;;;;;;25.63;23.23;;;16.10;99.90;;;;;;4909240;29;20542;-83
2021/06/08 22:12:42;;;;;;;27.33;24.73;;;16.10;99.90;;;;;;4889114;29;20548;-83
2021/06/08 22:15:08;;;;;;;26.20;23.73;;;16.00;99.90;;;;;;4913002;29;20531;-83
2021/06/08 22:17:36;;;;;;;25.33;22.93;;;15.90;99.90;;;;;;4922806;29;20445;-83
2021/06/08 22:20:13;;;;;;;25.40;22.90;;;15.90;99.90;;;;;;4915372;29;20454;-83
2021/06/08 22:22:42;;;;;;;26.47;23.87;;;15.90;99.90;;;;;;4905259;29;20488;-83
2021/06/08 22:25:15;;;;;;;26.97;24.00;;;16.00;99.90;;;;;;4893591;29;20480;-83
2021/06/08 22:27:43;;;;;;;28.33;25.63;;;16.00;99.90;;;;;;4918913;28;20887;-84
2021/06/08 22:30:25;;;;;;;27.83;25.00;;;16.10;99.90;;;;;;4904290;28;20476;-83
2021/06/08 22:32:52;;;;;;;26.50;23.90;;;16.10;99.90;;;;;;4902119;29;20474;-83
2021/06/08 22:35:19;;;;;;;26.20;23.80;;;16.10;99.90;;;;;;4898215;29;21259;-83
2021/06/08 22:37:47;;;;;;;26.57;23.70;;;16.00;99.90;;;;;;4908428;29;20599;-83
2021/06/08 22:40:20;;;;;;;29.50;25.97;;;16.00;99.90;;;;;;4918695;29;20521;-83
2021/06/08 22:42:47;;;;;;;30.00;27.10;;;15.90;99.90;;;;;;4906459;29;20651;-83
2021/06/08 22:45:14;;;;;;;27.13;24.33;;;15.90;99.90;;;;;;4915613;28;20460;-83
2021/06/08 22:47:46;;;;;;;26.90;24.30;;;15.90;99.90;;;;;;4906815;28;20466;-80
2021/06/08 22:50:17;;;;;;;27.90;25.00;;;15.80;99.90;;;;;;4908920;29;20585;-81
2021/06/08 22:52:44;;;;;;;27.53;24.93;;;15.80;99.90;;;;;;4923910;29;20594;-81
2021/06/08 22:55:14;;;;;;;27.43;24.83;;;15.80;99.90;;;;;;4908990;29;21035;-80
2021/06/08 22:57:42;;;;;;;28.53;25.43;;;15.70;99.90;;;;;;4923740;28;20465;-80
2021/06/08 23:00:13;;;;;;;29.37;26.33;;;15.70;99.90;;;;;;4908300;28;20499;-83
2021/06/08 23:02:41;;;;;;;28.23;25.27;;;15.70;99.90;;;;;;4916100;28;20477;-83
2021/06/08 23:05:08;;;;;;;31.97;27.67;;;15.70;99.90;;;;;;4914112;29;20493;-83
2021/06/08 23:07:36;;;;;;;30.57;27.37;;;15.70;99.90;;;;;;4914289;29;20534;-83
2021/06/08 23:10:05;;;;;;;31.30;28.10;;;15.60;99.90;;;;;;4908774;28;20728;-83
2021/06/08 23:12:31;;;;;;;30.33;27.13;;;15.50;99.90;;;;;;4915109;29;20455;-83
2021/06/08 23:15:00;;;;;;;29.53;26.63;;;15.50;99.90;;;;;;4906694;29;20491;-83
2021/06/08 23:17:27;;;;;;;30.33;27.13;;;15.50;99.90;;;;;;4907842;29;21357;-83
2021/06/08 23:19:59;;;;;;;31.20;27.97;;;15.50;99.90;;;;;;4894582;29;21018;-83
2021/06/08 23:22:26;;;;;;;28.80;25.80;;;15.50;99.90;;;;;;4901091;29;20479;-84
2021/06/08 23:24:53;;;;;;;29.90;26.80;;;15.50;99.90;;;;;;4911818;28;20463;-81
2021/06/08 23:27:19;;;;;;;30.87;27.67;;;15.40;99.90;;;;;;4911460;29;20444;-83
2021/06/08 23:29:45;;;;;;;29.00;25.80;;;15.40;99.90;;;;;;4917566;28;20559;-83
2021/06/08 23:32:13;;;;;;;31.90;28.50;;;15.40;99.90;;;;;;4912533;28;20520;-83
2021/06/08 23:34:39;;;;;;;33.43;29.80;;;15.30;99.90;;;;;;4908179;29;20556;-83
2021/06/08 23:37:18;;;;;;;35.87;31.77;;;15.30;99.90;;;;;;4915663;29;20445;-83
2021/06/08 23:39:46;;;;;;;33.80;30.10;;;15.20;99.90;;;;;;4922728;29;20463;-83
2021/06/08 23:42:14;;;;;;;33.00;28.90;;;15.20;99.90;;;;;;4920709;28;20505;-83
2021/06/08 23:44:42;;;;;;;27.57;24.67;;;15.20;99.90;;;;;;4900249;28;20463;-83
2021/06/08 23:47:10;;;;;;;31.17;27.93;;;15.20;99.90;;;;;;4925305;29;20439;-83
2021/06/08 23:49:45;;;;;;;27.20;24.50;;;15.10;99.90;;;;;;4915717;28;20491;-83
2021/06/08 23:52:11;;;;;;;27.50;24.67;;;15.10;99.90;;;;;;4906069;29;21188;-83
2021/06/08 23:54:43;;;;;;;29.30;26.20;;;15.10;99.90;;;;;;4917325;29;20555;-83
2021/06/08 23:57:12;;;;;;;27.83;25.03;;;15.10;99.90;;;;;;4916267;29;20451;-84
2021/06/08 23:59:41;;;;;;;27.00;24.43;;;15.10;99.90;;;;;;4900243;29;20585;-83
